Time;durP1;ratioP1;P1;durP2;ratioP2;P2;SDS_P1;SDS_P2;PMS_P1;PMS_P2;Temp;Humidity;BMP_temperature;BMP_pressure;BME280_temperature;BME280_humidity;BME280_pressure;Samples;Min_cycle;Max_cycle;Signal;HPM_P1;HPM_P2
2021/06/13 00:01:56;;;;;;;0.30;0.30;;;19.20;99.90;;;;;;5070729;28;20197;-72
2021/06/13 00:04:22;;;;;;;0.28;0.28;;;19.20;99.90;;;;;;5069423;28;20176;-72
2021/06/13 00:06:52;;;;;;;0.75;0.75;;;19.50;99.90;;;;;;5070680;28;20161;-72
2021/06/13 00:09:21;;;;;;;0.68;0.68;;;19.60;99.90;;;;;;5069347;28;20184;-72
2021/06/13 00:11:48;;;;;;;0.30;0.30;;;19.80;99.90;;;;;;5070630;28;20256;-72
2021/06/13 00:14:16;;;;;;;0.50;0.50;;;20.10;99.90;;;;;;5070470;28;20189;-72
2021/06/13 00:16:42;;;;;;;3.30;0.90;;;20.20;99.90;;;;;;5070520;28;20157;-72
2021/06/13 00:19:09;;;;;;;0.82;0.43;;;20.40;99.90;;;;;;5069121;28;20232;-71
2021/06/13 00:21:35;;;;;;;1.30;0.93;;;20.50;99.90;;;;;;5070330;28;20208;-72
2021/06/13 00:24:01;;;;;;;0.52;0.30;;;20.50;99.90;;;;;;5070296;28;20153;-72
2021/06/13 00:26:27;;;;;;;0.25;0.25;;;20.40;99.90;;;;;;5069095;28;20183;-73
2021/06/13 00:28:53;;;;;;;0.35;0.35;;;20.20;99.90;;;;;;5069010;28;20177;-72
2021/06/13 00:31:20;;;;;;;0.70;0.70;;;19.90;99.90;;;;;;5070162;28;20220;-72
2021/06/13 00:33:46;;;;;;;0.77;0.77;;;19.60;99.90;;;;;;5070222;28;20161;-72
2021/06/13 00:36:12;;;;;;;0.75;0.75;;;19.40;99.90;;;;;;5070182;28;20247;-72
2021/06/13 00:38:38;;;;;;;0.40;0.40;;;19.40;99.90;;;;;;5070187;28;20161;-73
2021/06/13 00:41:06;;;;;;;0.55;0.55;;;19.50;99.90;;;;;;5074461;28;20211;-72
2021/06/13 00:43:32;;;;;;;0.15;0.15;;;19.60;99.90;;;;;;5089979;28;20171;-72
2021/06/13 00:45:58;;;;;;;0.38;0.38;;;19.60;99.90;;;;;;5089932;28;20161;-72
2021/06/13 00:48:24;;;;;;;1.88;0.73;;;19.50;99.90;;;;;;5089941;28;20164;-72
2021/06/13 00:50:53;;;;;;;0.85;0.63;;;19.40;99.90;;;;;;5089752;28;20171;-72
2021/06/13 00:53:20;;;;;;;10.30;0.80;;;19.20;99.90;;;;;;5089893;28;20156;-73
2021/06/13 00:55:47;;;;;;;0.50;0.50;;;19.10;99.90;;;;;;5089901;28;20587;-72
2021/06/13 00:58:13;;;;;;;0.30;0.30;;;19.10;99.90;;;;;;5071768;28;20231;-72
2021/06/13 01:00:40;;;;;;;0.93;0.93;;;19.00;99.90;;;;;;5071745;28;20175;-73
2021/06/13 01:03:07;;;;;;;1.45;0.55;;;18.80;99.90;;;;;;5089732;28;20184;-70
2021/06/13 01:05:33;;;;;;;0.55;0.55;;;18.80;99.90;;;;;;5089655;28;20195;-72
2021/06/13 01:08:30;;;;;;;0.52;0.52;;;18.80;99.90;;;;;;5071724;28;20179;-73
2021/06/13 01:11:24;;;;;;;0.52;0.47;;;18.80;99.90;;;;;;5089467;28;20283;-73
2021/06/13 01:14:21;;;;;;;0.10;0.10;;;19.00;99.90;;;;;;5089458;28;20156;-70
2021/06/13 01:17:01;;;;;;;1.60;1.08;;;19.00;99.90;;;;;;5089621;28;20286;-73
2021/06/13 01:19:45;;;;;;;0.20;0.20;;;18.80;99.90;;;;;;5089475;28;20194;-73
2021/06/13 01:22:37;;;;;;;0.68;0.68;;;18.50;99.90;;;;;;5071276;28;20199;-72
2021/06/13 01:25:26;;;;;;;0.30;0.30;;;18.20;99.90;;;;;;5071400;28;20179;-72
2021/06/13 01:28:00;;;;;;;0.73;0.73;;;18.10;99.90;;;;;;5042734;28;20184;-72
2021/06/13 01:30:29;;;;;;;0.73;0.55;;;17.90;99.90;;;;;;5071509;28;20206;-72
2021/06/13 01:32:57;;;;;;;1.73;1.05;;;17.80;99.90;;;;;;5089248;28;20195;-72
2021/06/13 01:35:26;;;;;;;0.20;0.20;;;17.70;99.90;;;;;;5089211;28;20190;-72
2021/06/13 01:37:54;;;;;;;1.45;0.40;;;17.70;99.90;;;;;;5089301;28;20564;-72
2021/06/13 01:40:24;;;;;;;0.10;0.10;;;17.80;99.90;;;;;;5089304;28;20187;-72
2021/06/13 01:42:53;;;;;;;0.60;0.60;;;17.60;99.90;;;;;;5089013;28;20584;-73
2021/06/13 01:45:22;;;;;;;0.30;0.30;;;17.50;99.90;;;;;;5071168;28;20183;-72
2021/06/13 01:47:50;;;;;;;0.85;0.77;;;17.50;99.90;;;;;;5089153;28;20199;-72
2021/06/13 01:50:17;;;;;;;0.20;0.20;;;17.40;99.90;;;;;;5089295;28;20215;-72
2021/06/13 01:52:44;;;;;;;1.33;0.90;;;17.30;99.90;;;;;;5088813;28;20191;-72
2021/06/13 01:55:11;;;;;;;0.22;0.22;;;17.30;99.90;;;;;;5093203;28;20180;-71
2021/06/13 01:57:41;;;;;;;0.20;0.20;;;17.20;99.90;;;;;;5092991;28;20163;-72
2021/06/13 02:00:10;;;;;;;0.50;0.50;;;17.20;99.90;;;;;;5093100;28;20168;-72
2021/06/13 02:02:37;;;;;;;1.25;0.52;;;17.20;99.90;;;;;;5092836;28;20192;-72
2021/06/13 02:05:05;;;;;;;0.80;0.80;;;17.20;99.90;;;;;;5075171;28;20176;-71
2021/06/13 02:07:35;;;;;;;0.17;0.17;;;17.30;99.90;;;;;;5093071;28;20164;-71
2021/06/13 02:10:04;;;;;;;0.30;0.30;;;17.20;99.90;;;;;;5092964;28;20160;-72
2021/06/13 02:12:35;;;;;;;0.57;0.57;;;17.30;99.90;;;;;;5092813;28;20198;-72
2021/06/13 02:15:01;;;;;;;0.20;0.20;;;17.20;99.90;;;;;;5092788;28;20214;-70
2021/06/13 02:17:27;;;;;;;0.30;0.30;;;17.10;99.90;;;;;;5092875;28;20164;-72
2021/06/13 02:19:54;;;;;;;0.30;0.30;;;17.10;99.90;;;;;;5092963;28;20160;-72
2021/06/13 02:22:21;;;;;;;0.35;0.20;;;17.10;99.90;;;;;;5074657;28;20202;-72
2021/06/13 02:24:48;;;;;;;0.22;0.20;;;17.10;99.90;;;;;;5092710;28;20164;-72
2021/06/13 02:27:18;;;;;;;3.65;0.95;;;17.00;99.90;;;;;;5092648;28;20160;-72
2021/06/13 02:29:46;;;;;;;1.70;1.60;;;17.00;99.90;;;;;;5092569;28;20187;-71
2021/06/13 02:32:12;;;;;;;0.50;0.50;;;17.00;99.90;;;;;;5092639;28;20188;-71
2021/06/13 02:34:38;;;;;;;0.13;0.13;;;17.00;99.90;;;;;;5092418;28;20188;-71
2021/06/13 02:37:07;;;;;;;0.30;0.30;;;17.00;99.90;;;;;;5074540;28;20179;-72
2021/06/13 02:39:33;;;;;;;0.77;0.55;;;17.00;99.90;;;;;;5092574;28;20164;-72
2021/06/13 02:41:59;;;;;;;0.40;0.40;;;17.00;99.90;;;;;;5092081;28;20219;-72
2021/06/13 02:44:25;;;;;;;0.75;0.25;;;17.00;99.90;;;;;;5092295;28;20183;-71
2021/06/13 02:46:52;;;;;;;0.10;0.10;;;17.00;99.90;;;;;;5092317;28;20164;-72
2021/06/13 02:49:18;;;;;;;0.22;0.22;;;17.00;99.90;;;;;;5074222;28;20184;-72
2021/06/13 02:52:02;;;;;;;0.35;0.35;;;17.10;99.90;;;;;;5092067;28;20188;-71
2021/06/13 02:54:29;;;;;;;0.10;0.10;;;17.10;99.90;;;;;;5092030;28;20184;-71
2021/06/13 02:56:59;;;;;;;0.32;0.32;;;17.30;99.90;;;;;;5092315;28;20163;-71
2021/06/13 03:00:03;;;;;;;1.35;0.85;;;17.40;99.90;;;;;;5092171;28;20156;-72
2021/06/13 03:02:30;;;;;;;0.00;0.00;;;17.30;99.90;;;;;;5086825;28;20262;-71
2021/06/13 03:05:03;;;;;;;0.47;0.47;;;17.30;99.90;;;;;;5091585;28;20157;-71
2021/06/13 03:07:29;;;;;;;0.45;0.20;;;17.40;99.90;;;;;;5073917;28;20179;-71
2021/06/13 03:09:56;;;;;;;0.35;0.35;;;17.30;99.90;;;;;;5073804;28;20228;-72
2021/06/13 03:12:23;;;;;;;0.15;0.15;;;17.30;99.90;;;;;;5073601;28;20196;-71
2021/06/13 03:14:51;;;;;;;1.55;0.77;;;17.30;99.90;;;;;;5091659;28;20220;-71
2021/06/13 03:17:18;;;;;;;0.60;0.55;;;17.40;99.90;;;;;;5091658;28;20199;-71
2021/06/13 03:19:46;;;;;;;0.45;0.45;;;17.40;99.90;;;;;;5073587;28;20179;-71
2021/06/13 03:22:15;;;;;;;0.22;0.22;;;17.50;99.90;;;;;;5091466;28;20180;-72
2021/06/13 03:24:43;;;;;;;0.50;0.50;;;17.40;99.90;;;;;;5073543;28;20539;-72
2021/06/13 03:27:10;;;;;;;0.35;0.35;;;17.40;99.90;;;;;;5091491;28;20164;-72
2021/06/13 03:29:41;;;;;;;0.40;0.40;;;17.40;99.90;;;;;;5073204;28;20179;-73
2021/06/13 03:32:10;;;;;;;0.32;0.32;;;17.30;99.90;;;;;;5091383;28;20202;-72
2021/06/13 03:34:38;;;;;;;0.22;0.22;;;17.20;99.90;;;;;;5091231;28;20179;-71
2021/06/13 03:37:05;;;;;;;0.30;0.30;;;17.10;99.90;;;;;;5091354;28;20246;-72
2021/06/13 03:39:33;;;;;;;9.52;0.80;;;17.10;99.90;;;;;;5091181;28;20486;-72
2021/06/13 03:42:00;;;;;;;0.40;0.40;;;17.00;99.90;;;;;;5090828;28;20220;-72
2021/06/13 03:44:28;;;;;;;1.23;0.45;;;17.00;99.90;;;;;;5091112;28;20203;-72
2021/06/13 03:46:56;;;;;;;0.70;0.70;;;17.00;99.90;;;;;;5091083;28;20654;-72
2021/06/13 03:49:22;;;;;;;0.20;0.20;;;17.00;99.90;;;;;;5072910;28;20573;-70
2021/06/13 03:51:51;;;;;;;0.00;0.00;;;17.10;99.90;;;;;;5090838;28;20191;-72
2021/06/13 03:54:17;;;;;;;0.88;0.88;;;17.20;99.90;;;;;;5090913;28;20282;-72
2021/06/13 03:56:57;;;;;;;0.47;0.47;;;17.20;99.90;;;;;;5090824;28;20164;-72
2021/06/13 03:59:27;;;;;;;0.52;0.52;;;17.20;99.90;;;;;;5090770;28;20160;-71
2021/06/13 04:01:54;;;;;;;0.47;0.47;;;17.20;99.90;;;;;;5090707;28;20199;-73
2021/06/13 04:04:21;;;;;;;0.32;0.32;;;17.10;99.90;;;;;;5090767;28;20217;-71
2021/06/13 04:06:48;;;;;;;0.35;0.28;;;17.20;99.90;;;;;;5072629;28;20513;-72
2021/06/13 04:09:19;;;;;;;0.30;0.28;;;17.20;99.90;;;;;;5090595;28;20152;-73
2021/06/13 04:11:50;;;;;;;0.50;0.50;;;17.10;99.90;;;;;;5072516;28;20199;-72
2021/06/13 04:14:17;;;;;;;0.10;0.10;;;17.20;99.90;;;;;;5090567;28;20259;-72
2021/06/13 04:16:49;;;;;;;0.13;0.10;;;17.30;99.90;;;;;;5089520;28;20210;-73
2021/06/13 04:19:18;;;;;;;0.70;0.70;;;17.30;99.90;;;;;;5090238;28;20156;-71
2021/06/13 04:21:45;;;;;;;1.40;1.33;;;17.30;99.90;;;;;;5090403;28;20191;-70
2021/06/13 04:24:15;;;;;;;0.55;0.55;;;17.30;99.90;;;;;;5090373;28;20220;-70
2021/06/13 04:26:41;;;;;;;0.10;0.10;;;17.20;99.90;;;;;;5090185;28;20152;-70
2021/06/13 04:29:09;;;;;;;0.30;0.30;;;17.20;99.90;;;;;;5090049;28;20213;-70
2021/06/13 04:31:35;;;;;;;3.90;0.90;;;17.20;99.90;;;;;;5090186;28;20286;-70
2021/06/13 04:34:01;;;;;;;0.28;0.28;;;17.30;99.90;;;;;;5090165;28;20152;-70
2021/06/13 04:36:27;;;;;;;0.10;0.10;;;17.30;99.90;;;;;;5090251;28;20160;-70
2021/06/13 04:38:53;;;;;;;0.60;0.60;;;17.30;99.90;;;;;;5072002;28;20171;-70
2021/06/13 04:41:19;;;;;;;0.60;0.60;;;17.20;99.90;;;;;;5089779;28;20216;-70
2021/06/13 04:43:46;;;;;;;0.43;0.43;;;17.30;99.90;;;;;;5071901;28;20176;-70
2021/06/13 04:46:14;;;;;;;0.22;0.22;;;17.30;99.90;;;;;;5089887;28;20252;-70
2021/06/13 04:48:41;;;;;;;0.25;0.25;;;17.40;99.90;;;;;;5089437;28;20175;-70
2021/06/13 04:51:09;;;;;;;0.43;0.43;;;17.40;99.90;;;;;;5089906;28;20219;-70
2021/06/13 04:53:47;;;;;;;0.65;0.65;;;17.40;99.90;;;;;;5089671;28;20164;-70
2021/06/13 04:56:48;;;;;;;0.90;0.75;;;17.50;99.90;;;;;;5089760;28;20187;-70
2021/06/13 04:59:14;;;;;;;0.10;0.10;;;17.50;99.90;;;;;;5071714;28;20155;-70
2021/06/13 05:01:41;;;;;;;0.20;0.20;;;17.50;99.90;;;;;;5089645;28;20214;-69
2021/06/13 05:04:08;;;;;;;0.60;0.60;;;17.50;99.90;;;;;;5087816;28;20155;-70
2021/06/13 05:06:35;;;;;;;0.43;0.43;;;17.50;99.90;;;;;;5089082;28;20148;-70
2021/06/13 05:09:01;;;;;;;0.17;0.17;;;17.50;99.90;;;;;;5071564;28;20167;-69
2021/06/13 05:11:27;;;;;;;0.40;0.40;;;17.70;99.90;;;;;;5089465;28;20194;-70
2021/06/13 05:13:53;;;;;;;1.23;1.13;;;18.00;99.90;;;;;;5089576;28;20172;-69
2021/06/13 05:16:19;;;;;;;1.05;1.02;;;18.30;99.90;;;;;;5088303;28;20180;-70
2021/06/13 05:18:45;;;;;;;1.17;0.77;;;18.30;99.90;;;;;;5089507;28;20164;-70
2021/06/13 05:21:11;;;;;;;0.43;0.43;;;18.30;99.90;;;;;;5089438;28;20660;-70
2021/06/13 05:23:37;;;;;;;0.65;0.65;;;18.90;99.90;;;;;;5089455;28;20167;-69
2021/06/13 05:26:04;;;;;;;0.55;0.55;;;19.60;99.90;;;;;;5071391;28;20210;-70
2021/06/13 05:28:31;;;;;;;1.33;0.85;;;20.20;99.90;;;;;;5089187;28;20160;-70
2021/06/13 05:30:57;;;;;;;0.20;0.20;;;21.20;99.90;;;;;;5071160;28;20240;-70
2021/06/13 05:33:24;;;;;;;0.32;0.32;;;21.20;99.90;;;;;;5089258;28;20171;-69
2021/06/13 05:35:51;;;;;;;0.63;0.63;;;20.40;99.90;;;;;;5089329;28;20188;-70
2021/06/13 05:38:18;;;;;;;0.35;0.35;;;19.60;99.90;;;;;;5089244;28;20205;-70
2021/06/13 05:40:45;;;;;;;0.77;0.65;;;19.30;99.90;;;;;;5088603;28;20242;-69
2021/06/13 05:43:12;;;;;;;0.25;0.25;;;19.00;99.90;;;;;;5088938;28;20152;-70
2021/06/13 05:45:40;;;;;;;0.30;0.30;;;18.70;99.90;;;;;;5070575;28;20179;-70
2021/06/13 05:48:07;;;;;;;0.38;0.38;;;18.90;99.90;;;;;;5089226;28;20503;-70
2021/06/13 05:50:34;;;;;;;0.28;0.28;;;19.50;99.90;;;;;;5071132;28;20176;-70
2021/06/13 05:53:01;;;;;;;0.45;0.32;;;19.20;99.90;;;;;;5089066;28;20218;-70
2021/06/13 05:55:27;;;;;;;0.45;0.45;;;19.00;99.90;;;;;;5089028;28;20187;-70
2021/06/13 05:57:54;;;;;;;0.47;0.47;;;19.10;99.90;;;;;;5089206;28;20160;-71
2021/06/13 06:00:21;;;;;;;1.75;1.05;;;20.00;99.90;;;;;;5089014;28;20594;-71
2021/06/13 06:02:48;;;;;;;0.52;0.52;;;20.40;99.90;;;;;;5070485;28;20711;-70
2021/06/13 06:05:19;;;;;;;0.40;0.40;;;20.50;99.90;;;;;;5089021;28;20209;-70
2021/06/13 06:07:46;;;;;;;0.55;0.50;;;20.50;99.90;;;;;;5088943;28;20189;-70
2021/06/13 06:10:14;;;;;;;0.30;0.30;;;20.30;99.90;;;;;;5088950;28;20165;-70
2021/06/13 06:12:42;;;;;;;0.10;0.10;;;19.90;99.90;;;;;;5088842;28;20198;-70
2021/06/13 06:15:10;;;;;;;0.30;0.30;;;19.60;99.90;;;;;;5088884;28;20303;-70
2021/06/13 06:17:36;;;;;;;0.30;0.30;;;19.70;99.90;;;;;;5088854;28;20183;-70
2021/06/13 06:20:03;;;;;;;0.20;0.20;;;20.20;99.90;;;;;;5088850;28;20156;-70
2021/06/13 06:22:29;;;;;;;0.20;0.20;;;20.90;99.90;;;;;;5088814;28;20187;-70
2021/06/13 06:24:55;;;;;;;0.73;0.73;;;21.20;99.90;;;;;;5088854;28;20167;-70
2021/06/13 06:27:21;;;;;;;1.25;1.15;;;21.30;99.90;;;;;;5070607;28;20643;-71
2021/06/13 06:29:47;;;;;;;0.80;0.80;;;21.40;99.90;;;;;;5088698;28;20152;-70
2021/06/13 06:32:13;;;;;;;0.75;0.75;;;21.80;99.90;;;;;;5088739;28;20198;-71
2021/06/13 06:34:40;;;;;;;0.28;0.28;;;22.70;99.90;;;;;;5088657;28;20586;-70
2021/06/13 06:37:06;;;;;;;0.35;0.35;;;22.00;99.90;;;;;;5088701;28;20226;-71
2021/06/13 06:39:32;;;;;;;0.80;0.80;;;21.70;99.90;;;;;;5072172;28;20648;-70
2021/06/13 06:41:58;;;;;;;0.17;0.17;;;21.30;99.90;;;;;;5074083;28;20219;-70
2021/06/13 06:44:25;;;;;;;0.30;0.30;;;20.90;99.90;;;;;;5092345;28;20160;-70
2021/06/13 06:46:51;;;;;;;0.10;0.10;;;20.40;99.90;;;;;;5092300;28;20178;-70
2021/06/13 06:49:17;;;;;;;0.20;0.20;;;20.30;99.90;;;;;;5092114;28;20168;-70
2021/06/13 06:51:43;;;;;;;0.30;0.30;;;20.10;99.90;;;;;;5092106;28;20187;-70
2021/06/13 06:54:09;;;;;;;0.40;0.30;;;20.00;99.90;;;;;;5092444;28;20164;-70
2021/06/13 06:56:35;;;;;;;0.10;0.10;;;19.80;99.90;;;;;;5092100;28;20152;-70
2021/06/13 06:59:01;;;;;;;0.85;0.85;;;19.60;99.90;;;;;;5092074;28;20163;-70
2021/06/13 07:01:27;;;;;;;0.47;0.47;;;19.90;99.90;;;;;;5092130;28;20255;-69
2021/06/13 07:03:53;;;;;;;3.95;0.60;;;20.30;99.90;;;;;;5091898;28;20174;-71
2021/06/13 07:06:20;;;;;;;0.15;0.15;;;20.50;99.90;;;;;;5091852;28;20239;-71
2021/06/13 07:08:46;;;;;;;0.20;0.20;;;21.20;99.90;;;;;;5091629;28;20628;-71
2021/06/13 07:11:12;;;;;;;0.60;0.60;;;21.80;99.90;;;;;;5091605;28;20207;-71
2021/06/13 07:13:38;;;;;;;0.32;0.32;;;22.10;99.90;;;;;;5091655;28;20662;-71
2021/06/13 07:16:04;;;;;;;0.15;0.15;;;21.40;99.90;;;;;;5091419;28;20244;-70
2021/06/13 07:18:31;;;;;;;0.17;0.17;;;20.70;99.90;;;;;;5091597;28;20156;-70
2021/06/13 07:20:57;;;;;;;0.52;0.52;;;20.50;99.90;;;;;;5091397;28;20148;-71
2021/06/13 07:23:23;;;;;;;0.32;0.22;;;20.30;99.90;;;;;;5091555;28;20553;-71
2021/06/13 07:25:49;;;;;;;0.40;0.40;;;20.10;99.90;;;;;;5087750;28;20176;-71
2021/06/13 07:28:16;;;;;;;0.10;0.10;;;20.60;99.90;;;;;;5082718;28;20175;-71
2021/06/13 07:30:43;;;;;;;0.30;0.30;;;21.10;99.90;;;;;;5076684;28;20164;-71
2021/06/13 07:33:09;;;;;;;0.32;0.32;;;21.70;99.90;;;;;;5071227;28;20191;-71
2021/06/13 07:35:37;;;;;;;0.28;0.28;;;22.30;99.90;;;;;;5090075;28;20531;-71
2021/06/13 07:38:03;;;;;;;0.43;0.43;;;22.50;99.90;;;;;;5091037;28;20168;-71
2021/06/13 07:40:32;;;;;;;0.82;0.82;;;22.70;99.90;;;;;;5090795;28;20163;-71
2021/06/13 07:42:58;;;;;;;0.65;0.65;;;22.80;99.90;;;;;;5063460;28;20206;-71
2021/06/13 07:45:25;;;;;;;0.10;0.10;;;22.70;99.90;;;;;;5052978;28;20164;-71
2021/06/13 07:47:51;;;;;;;0.30;0.30;;;23.40;99.90;;;;;;5052887;28;20175;-71
2021/06/13 07:50:19;;;;;;;0.13;0.13;;;23.70;99.90;;;;;;5070746;28;20172;-70
2021/06/13 07:52:46;;;;;;;0.05;0.05;;;23.40;99.90;;;;;;5070467;28;20191;-70
2021/06/13 07:55:15;;;;;;;0.30;0.30;;;23.10;99.90;;;;;;5070837;28;20198;-70
2021/06/13 07:57:43;;;;;;;1.95;1.05;;;23.20;99.90;;;;;;5052894;28;20164;-71
2021/06/13 08:00:11;;;;;;;0.15;0.15;;;23.70;99.90;;;;;;5081520;28;20164;-70
2021/06/13 08:02:37;;;;;;;0.25;0.25;;;24.10;99.90;;;;;;5072624;28;20191;-70
2021/06/13 08:05:11;;;;;;;1.25;0.70;;;23.60;99.90;;;;;;5090724;28;20159;-71
2021/06/13 08:07:38;;;;;;;0.32;0.25;;;23.60;99.90;;;;;;5090672;28;20152;-71
2021/06/13 08:10:05;;;;;;;0.47;0.47;;;23.30;99.90;;;;;;5090610;28;20189;-70
2021/06/13 08:12:32;;;;;;;0.43;0.43;;;23.60;99.90;;;;;;5072235;28;20210;-71
2021/06/13 08:14:58;;;;;;;0.98;0.45;;;23.80;99.90;;;;;;5090369;28;20191;-71
2021/06/13 08:17:24;;;;;;;0.60;0.60;;;23.60;99.90;;;;;;5090461;28;20213;-71
2021/06/13 08:19:50;;;;;;;0.95;0.63;;;24.10;99.90;;;;;;5090030;28;20159;-71
2021/06/13 08:22:16;;;;;;;0.77;0.77;;;24.50;99.90;;;;;;5090190;28;20195;-71
2021/06/13 08:24:42;;;;;;;0.70;0.70;;;24.00;99.90;;;;;;5090174;28;20160;-71
2021/06/13 08:27:09;;;;;;;0.47;0.47;;;24.40;99.90;;;;;;5090282;28;20200;-69
2021/06/13 08:29:36;;;;;;;0.25;0.25;;;24.30;99.90;;;;;;5090180;28;20155;-69
2021/06/13 08:32:02;;;;;;;0.40;0.40;;;24.40;99.90;;;;;;5089745;28;20194;-69
2021/06/13 08:34:28;;;;;;;3.10;0.57;;;25.20;99.90;;;;;;5071820;28;20211;-69
2021/06/13 08:36:54;;;;;;;0.57;0.57;;;25.00;99.90;;;;;;5090084;28;20523;-70
2021/06/13 08:39:21;;;;;;;0.50;0.50;;;24.40;99.90;;;;;;5090079;28;20156;-69
2021/06/13 08:41:47;;;;;;;0.30;0.30;;;24.40;99.90;;;;;;5068328;28;20266;-68
2021/06/13 08:44:13;;;;;;;0.60;0.60;;;24.40;99.90;;;;;;5068597;28;20235;-67
2021/06/13 08:46:39;;;;;;;1.02;0.93;;;24.60;99.90;;;;;;5069631;28;20160;-70
2021/06/13 08:49:06;;;;;;;0.30;0.30;;;23.90;99.90;;;;;;5068535;28;20211;-69
2021/06/13 08:51:33;;;;;;;0.35;0.35;;;24.60;99.90;;;;;;5072490;28;20187;-69
2021/06/13 08:53:59;;;;;;;0.50;0.50;;;24.50;99.90;;;;;;5089767;28;20179;-69
2021/06/13 08:56:25;;;;;;;0.50;0.50;;;23.80;99.90;;;;;;5089683;28;20191;-69
2021/06/13 08:58:52;;;;;;;0.32;0.20;;;23.20;99.90;;;;;;5071885;28;20200;-69
2021/06/13 09:01:19;;;;;;;1.25;1.15;;;24.10;99.90;;;;;;5069190;28;20188;-69
2021/06/13 09:03:45;;;;;;;0.75;0.50;;;24.50;99.90;;;;;;5069502;28;20168;-69
2021/06/13 09:06:12;;;;;;;0.30;0.30;;;25.90;99.90;;;;;;5074245;28;20187;-69
2021/06/13 09:08:40;;;;;;;1.05;0.93;;;26.80;99.90;;;;;;5089510;28;20156;-69
2021/06/13 09:11:08;;;;;;;0.20;0.20;;;26.40;99.90;;;;;;5088145;28;20195;-69
2021/06/13 09:13:37;;;;;;;0.65;0.65;;;26.30;99.90;;;;;;5089419;28;20156;-69
2021/06/13 09:16:06;;;;;;;0.40;0.40;;;27.00;99.90;;;;;;5088050;28;20609;-69
2021/06/13 09:18:43;;;;;;;0.47;0.47;;;27.30;99.90;;;;;;5080513;28;20195;-70
2021/06/13 09:21:25;;;;;;;0.40;0.40;;;27.60;99.90;;;;;;5069101;28;20183;-70
2021/06/13 09:23:52;;;;;;;0.65;0.65;;;28.30;99.90;;;;;;5069232;28;20153;-70
2021/06/13 09:26:20;;;;;;;1.23;0.85;;;29.40;99.90;;;;;;5062062;28;20696;-69
2021/06/13 09:28:51;;;;;;;0.40;0.40;;;29.30;99.90;;;;;;5068148;28;20266;-69
2021/06/13 09:31:29;;;;;;;1.20;1.08;;;28.40;99.90;;;;;;5067712;28;20200;-69
2021/06/13 09:33:58;;;;;;;0.25;0.25;;;27.50;99.90;;;;;;5067837;28;20191;-70
2021/06/13 09:36:30;;;;;;;0.40;0.30;;;26.50;99.90;;;;;;5068954;28;20187;-70
2021/06/13 09:39:07;;;;;;;2.45;2.00;;;26.90;99.90;;;;;;5069254;28;20165;-69
2021/06/13 09:41:36;;;;;;;0.98;0.77;;;25.60;99.90;;;;;;5092801;28;20229;-69
2021/06/13 09:44:07;;;;;;;0.95;0.95;;;25.30;99.90;;;;;;5091125;28;20575;-69
2021/06/13 09:46:35;;;;;;;5.05;0.40;;;24.80;99.90;;;;;;5109303;28;20218;-69
2021/06/13 09:49:07;;;;;;;0.30;0.30;;;24.70;99.90;;;;;;5109315;28;20575;-69
2021/06/13 09:51:40;;;;;;;0.15;0.15;;;23.90;99.90;;;;;;5100435;28;20280;-69
2021/06/13 09:54:08;;;;;;;0.35;0.35;;;24.00;99.90;;;;;;5089101;28;20258;-69
2021/06/13 09:56:36;;;;;;;0.52;0.52;;;24.10;99.90;;;;;;5088536;28;20156;-69
2021/06/13 09:59:09;;;;;;;0.32;0.32;;;24.20;99.90;;;;;;5070902;28;20182;-69
2021/06/13 10:01:56;;;;;;;0.20;0.20;;;25.80;99.90;;;;;;5088935;28;20217;-71
2021/06/13 10:04:26;;;;;;;0.63;0.63;;;27.60;99.90;;;;;;5070960;28;20175;-71
2021/06/13 10:06:57;;;;;;;0.43;0.40;;;28.00;99.90;;;;;;5088480;28;20163;-71
2021/06/13 10:09:35;;;;;;;0.70;0.50;;;27.90;99.90;;;;;;5088878;28;20552;-72
2021/06/13 10:12:07;;;;;;;0.52;0.52;;;28.10;99.90;;;;;;5088837;28;20184;-69
2021/06/13 10:14:33;;;;;;;0.75;0.70;;;27.60;99.90;;;;;;5072370;28;20255;-71
2021/06/13 10:16:59;;;;;;;0.70;0.50;;;29.80;99.90;;;;;;5091856;28;20159;-71
2021/06/13 10:19:39;;;;;;;0.63;0.63;;;30.20;99.90;;;;;;5074689;28;20185;-71
2021/06/13 10:22:06;;;;;;;1.15;0.75;;;30.20;99.90;;;;;;5092576;28;20720;-70
2021/06/13 10:24:34;;;;;;;1.20;0.45;;;29.80;99.90;;;;;;5092647;28;20159;-71
2021/06/13 10:27:01;;;;;;;0.47;0.47;;;30.60;99.90;;;;;;5071080;28;20184;-72
2021/06/13 10:29:32;;;;;;;0.57;0.52;;;32.10;99.90;;;;;;5072622;28;20169;-71
2021/06/13 10:32:02;;;;;;;0.88;0.50;;;32.10;99.90;;;;;;5072190;28;20214;-71
2021/06/13 10:34:29;;;;;;;1.10;1.00;;;30.80;99.90;;;;;;5066572;28;20171;-71
2021/06/13 10:36:59;;;;;;;1.05;0.93;;;30.00;99.90;;;;;;5092328;28;20155;-71
2021/06/13 10:39:27;;;;;;;0.60;0.47;;;27.90;99.90;;;;;;5092462;28;20148;-71
2021/06/13 10:41:54;;;;;;;0.43;0.43;;;27.40;99.90;;;;;;5070619;28;20216;-71
2021/06/13 10:44:22;;;;;;;0.65;0.65;;;28.00;99.90;;;;;;5070999;28;20164;-70
2021/06/13 10:46:51;;;;;;;0.55;0.28;;;28.90;99.90;;;;;;5070852;28;20172;-71
2021/06/13 10:49:30;;;;;;;0.57;0.57;;;27.50;99.90;;;;;;5072121;28;20161;-70
2021/06/13 10:52:09;;;;;;;1.10;0.47;;;29.00;99.90;;;;;;5071965;28;20195;-71
2021/06/13 10:54:39;;;;;;;0.60;0.60;;;29.40;99.90;;;;;;5070625;28;20291;-70
2021/06/13 10:57:08;;;;;;;1.05;0.90;;;30.60;99.90;;;;;;5072169;28;20157;-72
2021/06/13 10:59:35;;;;;;;0.43;0.43;;;32.00;99.90;;;;;;5071853;28;20163;-71
2021/06/13 11:02:14;;;;;;;0.95;0.82;;;32.10;99.90;;;;;;5070582;28;20255;-72
2021/06/13 11:04:45;;;;;;;1.33;0.60;;;32.60;99.90;;;;;;5070612;28;20534;-71
2021/06/13 11:07:35;;;;;;;0.70;0.52;;;30.10;99.90;;;;;;5070509;28;20177;-71
2021/06/13 11:10:11;;;;;;;0.15;0.15;;;29.70;99.90;;;;;;5070221;28;20187;-71
2021/06/13 11:12:54;;;;;;;0.52;0.52;;;28.10;99.90;;;;;;5071500;28;20191;-71
2021/06/13 11:15:27;;;;;;;0.30;0.30;;;27.60;99.90;;;;;;5070111;28;20211;-71
2021/06/13 11:18:21;;;;;;;0.93;0.38;;;26.80;99.90;;;;;;5071586;28;20156;-71
2021/06/13 11:21:10;;;;;;;0.30;0.30;;;26.00;99.90;;;;;;5071648;28;20203;-71
2021/06/13 11:23:36;;;;;;;0.40;0.40;;;27.40;99.90;;;;;;5071325;28;20202;-70
2021/06/13 11:26:04;;;;;;;0.20;0.20;;;28.90;99.90;;;;;;5067301;28;20184;-71
2021/06/13 11:28:33;;;;;;;2.08;0.22;;;29.70;99.90;;;;;;5050084;28;20165;-72
2021/06/13 11:31:21;;;;;;;0.25;0.25;;;30.40;97.80;;;;;;5051240;28;20169;-71
2021/06/13 11:33:48;;;;;;;0.10;0.10;;;28.50;95.10;;;;;;5062451;28;20160;-71
2021/06/13 11:36:17;;;;;;;0.35;0.32;;;27.30;94.70;;;;;;5089762;28;20191;-71
2021/06/13 11:38:48;;;;;;;0.68;0.38;;;27.30;95.40;;;;;;5091225;28;20155;-71
2021/06/13 11:41:48;;;;;;;0.30;0.30;;;27.80;95.00;;;;;;5097238;28;20716;-71
2021/06/13 11:44:20;;;;;;;0.17;0.17;;;27.30;92.00;;;;;;5110460;28;20175;-72
2021/06/13 11:46:49;;;;;;;0.20;0.20;;;26.90;92.70;;;;;;5093165;28;20251;-71
2021/06/13 11:49:21;;;;;;;0.00;0.00;;;27.00;92.80;;;;;;5111355;28;20159;-72
2021/06/13 11:51:58;;;;;;;0.17;0.17;;;26.70;92.00;;;;;;5092871;28;20194;-71
2021/06/13 11:54:35;;;;;;;0.10;0.10;;;26.80;92.20;;;;;;5110967;28;20162;-71
2021/06/13 11:57:05;;;;;;;0.20;0.20;;;27.00;92.90;;;;;;5110858;28;20185;-71
2021/06/13 11:59:32;;;;;;;0.17;0.17;;;27.00;92.50;;;;;;5092028;28;20170;-71
2021/06/13 12:02:00;;;;;;;3.55;0.28;;;27.70;92.30;;;;;;5110702;28;20273;-71
2021/06/13 12:04:28;;;;;;;0.60;0.30;;;27.30;90.40;;;;;;5092657;28;20170;-71
2021/06/13 12:06:56;;;;;;;0.32;0.30;;;26.60;91.20;;;;;;5110918;28;20185;-71
2021/06/13 12:09:23;;;;;;;1.27;0.60;;;26.50;90.20;;;;;;5107828;28;20178;-71
2021/06/13 12:11:57;;;;;;;0.20;0.20;;;26.50;90.60;;;;;;5110775;28;20211;-71
2021/06/13 12:14:28;;;;;;;0.08;0.08;;;27.30;91.50;;;;;;5110676;28;20155;-72
2021/06/13 12:16:56;;;;;;;0.10;0.10;;;26.70;90.50;;;;;;5110726;28;20152;-71
2021/06/13 12:19:33;;;;;;;0.00;0.00;;;26.10;87.90;;;;;;5088959;28;20182;-72
2021/06/13 12:22:53;;;;;;;3.60;0.45;;;25.70;87.80;;;;;;5110517;28;20186;-71
2021/06/13 12:28:09;;;;;;;0.10;0.10;;;25.80;88.90;;;;;;5070007;28;20159;-71
2021/06/13 12:30:38;;;;;;;0.63;0.57;;;25.60;89.20;;;;;;5070145;28;20227;-71
2021/06/13 12:33:14;;;;;;;0.45;0.13;;;25.70;87.00;;;;;;5070799;28;20219;-71
2021/06/13 12:35:49;;;;;;;0.22;0.22;;;25.40;86.10;;;;;;5051913;28;20187;-72
2021/06/13 12:38:17;;;;;;;0.10;0.10;;;25.40;86.60;;;;;;5070363;28;20152;-71
2021/06/13 12:40:48;;;;;;;0.85;0.40;;;25.40;87.30;;;;;;5091758;28;20155;-72
2021/06/13 12:43:16;;;;;;;0.22;0.10;;;25.20;84.00;;;;;;5109784;28;20224;-72
2021/06/13 12:45:44;;;;;;;0.10;0.10;;;25.20;84.50;;;;;;5109954;28;20158;-71
2021/06/13 12:48:12;;;;;;;0.30;0.30;;;25.50;85.90;;;;;;5110104;28;20155;-71
2021/06/13 12:50:40;;;;;;;0.10;0.10;;;25.60;86.20;;;;;;5111177;28;20197;-72
2021/06/13 12:53:11;;;;;;;0.10;0.10;;;25.40;85.80;;;;;;5109476;28;20151;-72
2021/06/13 12:55:38;;;;;;;0.50;0.20;;;25.30;85.00;;;;;;5109681;28;20194;-72
2021/06/13 12:58:08;;;;;;;0.20;0.20;;;25.20;84.40;;;;;;5109960;28;20232;-72
2021/06/13 13:00:35;;;;;;;0.10;0.10;;;25.10;86.90;;;;;;5109944;28;20219;-72
2021/06/13 13:03:11;;;;;;;0.40;0.30;;;25.20;85.70;;;;;;5109899;28;20265;-72